Terminal Aerodrome Forecast
Issued by NWS Louisville, KY

Home | Current Version | Previous Version | Text Only | Print | Product List | Glossary On
Versions: 1 2 3 4 5 6 7 8 9 10 11 12 13 14 15
000
FTUS43 KLMK 241120
TAFBWG
TAF
KBWG 241120Z 2412/2512 00000KT 5SM BR BKN250
      TEMPO 2412/2413 1 1/2SM BR BKN007
     FM241300 24005KT P6SM SCT050
     FM250000 00000KT P6SM FEW070
     FM250900 03003KT 4SM BR FEW100=

USA.gov is the U.S. government's official web portal to all federal, state and local government web resources and services.